Time;durP1;ratioP1;P1;durP2;ratioP2;P2;SDS_P1;SDS_P2;PMS_P1;PMS_P2;Temp;Humidity;BMP_temperature;BMP_pressure;BME280_temperature;BME280_humidity;BME280_pressure;Samples;Min_cycle;Max_cycle;Signal;HPM_P1;HPM_P2
2022/03/10 00:02:17;;;;;;;44.43;19.37;;;;;;;1.26;100.00;102459.84;4993767;28;20033;-85
2022/03/10 00:04:43;;;;;;;50.33;22.07;;;;;;;1.34;100.00;102464.84;4993971;28;20030;-84
2022/03/10 00:07:08;;;;;;;49.63;19.77;;;;;;;1.26;100.00;102466.00;4994243;28;20084;-83
2022/03/10 00:09:33;;;;;;;56.50;20.13;;;;;;;1.29;100.00;102466.75;5010224;28;20423;-84
2022/03/10 00:12:00;;;;;;;44.97;20.17;;;;;;;1.33;100.00;102471.00;4993996;28;20127;-83
2022/03/10 00:14:26;;;;;;;41.35;18.52;;;;;;;1.27;100.00;102465.06;4994943;28;20285;-85
2022/03/10 00:16:52;;;;;;;43.97;19.88;;;;;;;1.25;100.00;102464.25;4995206;28;20048;-86
2022/03/10 00:19:17;;;;;;;49.78;21.65;;;;;;;1.21;100.00;102467.06;4995225;28;20028;-85
2022/03/10 00:21:44;;;;;;;45.35;20.10;;;;;;;1.26;100.00;102463.38;4995278;28;20061;-83
2022/03/10 00:24:09;;;;;;;56.90;21.70;;;;;;;1.24;100.00;102466.94;4994958;28;20502;-84
2022/03/10 00:26:36;;;;;;;52.83;22.57;;;;;;;1.24;100.00;102467.81;4995077;28;20034;-86
2022/03/10 00:29:01;;;;;;;55.53;20.42;;;;;;;1.19;100.00;102468.91;4994917;28;20063;-85
2022/03/10 00:31:27;;;;;;;46.70;20.30;;;;;;;1.07;100.00;102464.13;4995024;28;20063;-85
2022/03/10 00:33:52;;;;;;;52.25;21.58;;;;;;;1.12;100.00;102476.16;4995227;28;20120;-85
2022/03/10 00:36:17;;;;;;;50.20;20.73;;;;;;;1.05;100.00;102472.06;4995427;28;20049;-85
2022/03/10 00:38:43;;;;;;;53.83;21.67;;;;;;;1.04;100.00;102476.47;4994882;28;20486;-83
2022/03/10 00:41:09;;;;;;;47.50;21.30;;;;;;;0.99;100.00;102472.31;4995048;28;20056;-84
2022/03/10 00:43:35;;;;;;;53.92;21.48;;;;;;;1.03;100.00;102471.25;4995247;28;20080;-85
2022/03/10 00:46:00;;;;;;;53.70;23.10;;;;;;;0.96;100.00;102472.41;5011306;28;20041;-86
2022/03/10 00:48:25;;;;;;;54.63;20.47;;;;;;;0.98;100.00;102474.09;4994610;28;20048;-84
2022/03/10 00:50:51;;;;;;;52.17;21.73;;;;;;;0.98;100.00;102473.22;4994528;28;20335;-86
2022/03/10 00:53:16;;;;;;;49.23;20.30;;;;;;;1.04;100.00;102475.63;5011127;28;20040;-86
2022/03/10 00:55:42;;;;;;;52.33;20.33;;;;;;;1.03;100.00;102471.25;4994530;28;20056;-84
2022/03/10 00:58:07;;;;;;;47.80;19.63;;;;;;;1.01;100.00;102478.38;4994491;28;21125;-86
2022/03/10 01:00:32;;;;;;;49.43;19.67;;;;;;;0.97;100.00;102468.88;4994117;28;20195;-86
2022/03/10 01:02:58;;;;;;;56.72;20.17;;;;;;;0.91;100.00;102469.94;4993961;28;20513;-83
2022/03/10 01:05:24;;;;;;;52.78;21.90;;;;;;;0.90;100.00;102476.16;4994325;28;20069;-83
2022/03/10 01:07:50;;;;;;;52.75;21.15;;;;;;;1.00;100.00;102481.91;4994467;28;20033;-86
2022/03/10 01:10:17;;;;;;;50.88;23.25;;;;;;;0.91;100.00;102463.84;4993857;28;20465;-81
2022/03/10 01:12:45;;;;;;;55.67;23.77;;;;;;;0.94;100.00;102466.38;4994149;28;20057;-85
2022/03/10 01:15:16;;;;;;;45.33;19.73;;;;;;;0.96;100.00;102473.28;4993330;28;20709;-85
2022/03/10 01:17:42;;;;;;;51.45;20.05;;;;;;;0.95;100.00;102462.81;4993495;28;20148;-86
2022/03/10 01:20:08;;;;;;;50.22;22.38;;;;;;;0.89;100.00;102456.03;4993785;28;20035;-85
2022/03/10 01:22:36;;;;;;;54.90;21.65;;;;;;;0.88;100.00;102474.50;4993830;28;20041;-82
2022/03/10 01:25:03;;;;;;;54.10;20.77;;;;;;;0.84;100.00;102477.25;4994157;28;20038;-86
2022/03/10 01:27:29;;;;;;;47.20;20.45;;;;;;;0.77;100.00;102473.13;4993559;28;20030;-85
2022/03/10 01:29:55;;;;;;;51.55;20.45;;;;;;;0.78;100.00;102477.47;4993134;28;20088;-85
2022/03/10 01:32:20;;;;;;;51.87;20.70;;;;;;;0.71;100.00;102483.88;4977771;28;20046;-86
2022/03/10 01:34:45;;;;;;;42.00;19.67;;;;;;;0.58;100.00;102477.31;4993818;28;20402;-86
2022/03/10 01:37:11;;;;;;;56.67;21.87;;;;;;;0.51;100.00;102470.56;4994203;28;20292;-85
2022/03/10 01:39:36;;;;;;;39.80;18.40;;;;;;;0.45;100.00;102470.81;4993276;28;20433;-85
2022/03/10 01:42:06;;;;;;;50.73;21.40;;;;;;;0.44;100.00;102471.72;4993664;28;20106;-86
2022/03/10 01:44:32;;;;;;;54.95;22.08;;;;;;;0.52;100.00;102482.81;4994389;28;20033;-85
2022/03/10 01:46:58;;;;;;;51.85;21.75;;;;;;;0.54;100.00;102480.97;4994096;28;20069;-81
2022/03/10 01:49:24;;;;;;;56.42;21.60;;;;;;;0.49;100.00;102469.78;4993418;28;20411;-85
2022/03/10 01:51:50;;;;;;;;;;;;;;;0.60;100.00;102478.13;4994273;28;20037;-85
2022/03/10 01:54:16;;;;;;;53.50;21.23;;;;;;;0.65;100.00;102483.22;4993551;28;19914;-85
2022/03/10 01:56:41;;;;;;;54.28;22.92;;;;;;;0.59;100.00;102479.91;4993273;28;20029;-84
2022/03/10 01:59:07;;;;;;;51.58;22.40;;;;;;;0.59;100.00;102479.91;4993260;28;20418;-86
2022/03/10 02:01:34;;;;;;;52.03;23.27;;;;;;;0.51;100.00;102478.47;4993516;28;20030;-85
2022/03/10 02:04:00;;;;;;;56.05;21.95;;;;;;;0.49;100.00;102477.66;5009362;28;20379;-84
2022/03/10 02:06:25;;;;;;;51.13;23.10;;;;;;;0.43;100.00;102476.13;5015022;28;20100;-82
2022/03/10 02:11:36;;;;;;;42.92;16.05;;;;;;;0.38;100.00;102480.69;5049218;28;20120;-84
2022/03/10 02:17:19;;;;;;;51.78;21.50;;;;;;;0.39;100.00;102485.88;5032411;28;20036;-83
2022/03/10 02:19:31;;;;;;;51.22;22.85;;;;;;;0.39;100.00;102477.13;5049414;28;20424;-84
2022/03/10 02:21:57;;;;;;;53.85;22.98;;;;;;;0.37;100.00;102484.22;5015676;28;20079;-85
2022/03/10 02:24:24;;;;;;;;;;;;;;;0.46;100.00;102483.88;5015863;28;20037;-84
2022/03/10 02:26:49;;;;;;;43.60;20.38;;;;;;;0.51;100.00;102483.72;5018871;28;19908;-85
2022/03/10 02:29:16;;;;;;;46.35;20.67;;;;;;;0.47;100.00;102480.34;5036522;28;20124;-85
2022/03/10 02:31:41;;;;;;;51.03;21.00;;;;;;;0.48;100.00;102474.19;5054165;28;20035;-85
2022/03/10 02:34:09;;;;;;;53.40;21.53;;;;;;;0.47;100.00;102482.09;5035751;28;20021;-85
2022/03/10 02:36:34;;;;;;;49.67;21.73;;;;;;;0.54;100.00;102480.97;5036137;28;20033;-84
2022/03/10 02:39:00;;;;;;;41.88;19.33;;;;;;;0.51;100.00;102471.44;5018759;28;20485;-85
2022/03/10 02:41:25;;;;;;;49.65;20.30;;;;;;;0.51;100.00;102481.09;5019905;28;20535;-84
2022/03/10 02:43:51;;;;;;;52.40;21.30;;;;;;;0.47;100.00;102475.09;5018748;28;20068;-85
2022/03/10 02:46:16;;;;;;;46.57;20.60;;;;;;;0.39;100.00;102477.13;5035951;28;20033;-86
2022/03/10 02:48:41;;;;;;;55.97;21.83;;;;;;;0.43;100.00;102475.28;5035241;28;20354;-85
2022/03/10 02:51:08;;;;;;;51.10;21.83;;;;;;;0.40;100.00;102482.34;5051834;28;20029;-85
2022/03/10 02:53:33;;;;;;;;;;;;;;;0.40;100.00;102484.97;5019593;28;20289;-82
2022/03/10 02:55:58;;;;;;;55.42;21.67;;;;;;;0.34;100.00;102490.44;5018928;28;19912;-85
2022/03/10 02:58:24;;;;;;;54.03;22.70;;;;;;;0.39;100.00;102490.28;5035857;28;20036;-84
2022/03/10 03:00:49;;;;;;;56.00;22.90;;;;;;;0.27;100.00;102493.34;5018951;28;20032;-84
2022/03/10 03:03:15;;;;;;;59.00;25.02;;;;;;;0.23;100.00;102479.44;5052032;28;20139;-85
2022/03/10 03:05:40;;;;;;;59.87;22.27;;;;;;;0.32;100.00;102494.88;5035384;28;20691;-86
2022/03/10 03:08:06;;;;;;;63.90;24.70;;;;;;;0.22;100.00;102488.25;5034966;28;20271;-85
2022/03/10 03:10:36;;;;;;;57.53;22.55;;;;;;;0.24;100.00;102494.31;5035330;28;20041;-84
2022/03/10 03:13:03;;;;;;;55.03;22.55;;;;;;;0.23;100.00;102492.56;5035341;28;20086;-85
2022/03/10 03:15:28;;;;;;;59.42;25.23;;;;;;;0.27;100.00;102499.44;5035581;28;20021;-83
2022/03/10 03:17:54;;;;;;;59.87;23.20;;;;;;;0.24;100.00;102498.69;5035963;28;20033;-85
2022/03/10 03:20:19;;;;;;;61.88;23.73;;;;;;;0.19;100.00;102490.97;5035279;28;20374;-85
2022/03/10 03:22:45;;;;;;;54.67;23.03;;;;;;;0.23;100.00;102504.84;5035434;28;20044;-87
2022/03/10 03:25:14;;;;;;;66.43;23.83;;;;;;;0.24;100.00;102502.19;5019211;28;20056;-85
2022/03/10 03:27:41;;;;;;;57.40;23.77;;;;;;;0.26;100.00;102513.50;5035151;28;20485;-86
2022/03/10 03:30:07;;;;;;;61.75;23.80;;;;;;;0.27;100.00;102509.09;5035099;28;20044;-86
2022/03/10 03:32:32;;;;;;;56.67;22.42;;;;;;;0.21;100.00;102510.16;5018389;28;20025;-84
2022/03/10 03:34:58;;;;;;;54.67;22.70;;;;;;;0.28;100.00;102516.94;5035305;28;20128;-82
2022/03/10 03:37:23;;;;;;;62.53;24.40;;;;;;;0.36;100.00;102514.88;5018553;28;20055;-84
2022/03/10 03:39:49;;;;;;;54.88;22.38;;;;;;;0.28;100.00;102510.78;5035686;28;20388;-86
2022/03/10 03:42:14;;;;;;;61.70;22.20;;;;;;;0.27;100.00;102520.47;5035948;28;20115;-85
2022/03/10 03:44:39;;;;;;;57.93;23.57;;;;;;;0.23;100.00;102517.97;5035958;28;20094;-85
2022/03/10 03:47:05;;;;;;;57.17;22.33;;;;;;;0.19;100.00;102519.88;5035454;28;20287;-86
2022/03/10 03:49:30;;;;;;;58.37;24.07;;;;;;;0.17;100.00;102532.19;5018833;28;20472;-85
2022/03/10 03:51:55;;;;;;;61.40;23.93;;;;;;;0.22;100.00;102530.28;5035843;28;20291;-86
2022/03/10 03:54:21;;;;;;;63.17;23.03;;;;;;;0.20;100.00;102532.09;5035432;28;20052;-83
2022/03/10 03:56:46;;;;;;;62.05;25.48;;;;;;;0.17;100.00;102529.56;5018426;28;20040;-86
2022/03/10 03:59:11;;;;;;;61.43;26.37;;;;;;;0.23;100.00;102533.75;5067825;23;20049;-78
2022/03/10 04:01:37;;;;;;;57.88;24.27;;;;;;;0.24;100.00;102533.69;5048246;28;20029;-77
2022/03/10 04:04:02;;;;;;;53.07;22.70;;;;;;;0.10;100.00;102528.06;5051505;28;20129;-77
2022/03/10 04:06:28;;;;;;;59.33;23.70;;;;;;;0.08;100.00;102519.38;5051551;28;20041;-77
2022/03/10 04:08:53;;;;;;;60.23;24.03;;;;;;;0.11;100.00;102529.75;5051482;28;20477;-76
2022/03/10 04:11:19;;;;;;;61.38;25.02;;;;;;;0.09;100.00;102536.84;5069586;28;20040;-77
2022/03/10 04:13:44;;;;;;;62.92;24.23;;;;;;;0.08;100.00;102533.34;5081544;22;20527;-74
2022/03/10 04:16:10;;;;;;;59.30;24.45;;;;;;;0.10;100.00;102538.56;5056216;28;20035;-74
2022/03/10 04:18:35;;;;;;;66.07;24.67;;;;;;;0.13;100.00;102546.34;5066866;28;20052;-73
2022/03/10 04:21:01;;;;;;;60.63;24.10;;;;;;;0.07;100.00;102547.41;5066814;28;20108;-74
2022/03/10 04:23:27;;;;;;;61.08;26.38;;;;;;;0.02;100.00;102548.44;5066309;28;20024;-73
2022/03/10 04:25:53;;;;;;;63.95;24.75;;;;;;;-0.02;100.00;102553.81;5032678;28;20043;-74
2022/03/10 04:28:19;;;;;;;58.03;23.60;;;;;;;-0.08;100.00;102561.88;5049658;28;20035;-74
2022/03/10 04:30:44;;;;;;;59.40;24.88;;;;;;;-0.15;100.00;102560.34;5049106;28;20094;-74
2022/03/10 04:33:10;;;;;;;54.22;23.63;;;;;;;-0.15;100.00;102559.50;5067073;28;20546;-75
2022/03/10 04:35:35;;;;;;;56.63;24.75;;;;;;;-0.15;100.00;102559.50;5032747;28;20411;-74
2022/03/10 04:38:01;;;;;;;55.83;23.08;;;;;;;-0.17;100.00;102561.31;5066082;28;20024;-73
2022/03/10 04:40:27;;;;;;;63.80;26.67;;;;;;;-0.25;100.00;102554.53;5048532;28;20070;-74
2022/03/10 04:42:53;;;;;;;66.85;26.08;;;;;;;-0.25;100.00;102549.28;5048779;28;20024;-76
2022/03/10 04:45:18;;;;;;;58.83;26.42;;;;;;;-0.23;100.00;102552.75;5066956;28;20039;-76
2022/03/10 04:47:44;;;;;;;63.83;24.98;;;;;;;-0.26;100.00;102554.59;5066890;28;20538;-74
2022/03/10 04:50:12;;;;;;;63.53;25.63;;;;;;;-0.25;100.00;102548.44;5048041;28;20032;-74
2022/03/10 04:52:38;;;;;;;57.55;24.98;;;;;;;-0.32;100.00;102547.78;5066668;28;20037;-74
2022/03/10 04:55:04;;;;;;;65.20;25.88;;;;;;;-0.30;100.00;102551.22;5066719;28;20443;-75
2022/03/10 04:57:29;;;;;;;75.30;27.27;;;;;;;-0.29;100.00;102552.91;5048579;28;20434;-74
2022/03/10 04:59:55;;;;;;;63.00;25.30;;;;;;;-0.36;100.00;102550.53;5031714;28;20033;-74
2022/03/10 05:02:20;;;;;;;61.50;24.57;;;;;;;-0.30;100.00;102550.38;5048582;28;20127;-74
2022/03/10 05:04:46;;;;;;;63.30;24.90;;;;;;;-0.15;100.00;102567.38;5066618;28;20070;-74
2022/03/10 05:07:12;;;;;;;60.60;24.40;;;;;;;-0.10;100.00;102550.56;5047847;28;20041;-74
2022/03/10 05:09:38;;;;;;;66.80;25.25;;;;;;;-0.11;100.00;102545.38;5065752;28;20016;-75
2022/03/10 05:12:04;;;;;;;62.25;24.83;;;;;;;-0.13;100.00;102545.41;5048669;28;20133;-75
2022/03/10 05:14:29;;;;;;;64.57;24.38;;;;;;;-0.11;100.00;102534.88;5066477;28;20036;-76
2022/03/10 05:16:55;;;;;;;58.55;24.92;;;;;;;-0.19;100.00;102529.00;5047824;28;20029;-74
2022/03/10 05:19:20;;;;;;;60.40;26.17;;;;;;;-0.19;100.00;102529.00;5047087;28;20036;-74
2022/03/10 05:21:45;;;;;;;61.87;25.40;;;;;;;-0.10;100.00;102519.06;5047820;28;20032;-75
2022/03/10 05:24:12;;;;;;;54.88;23.20;;;;;;;-0.09;100.00;102519.94;5064109;28;20332;-73
2022/03/10 05:26:37;;;;;;;;;;;;;;;-0.02;100.00;102524.94;5047852;28;20040;-74
2022/03/10 05:29:03;;;;;;;55.45;22.63;;;;;;;-0.09;100.00;102523.41;5063747;28;19922;-76
2022/03/10 05:31:28;;;;;;;53.75;21.50;;;;;;;0.04;100.00;102523.00;5065408;28;20090;-74
2022/03/10 05:33:54;;;;;;;61.03;23.40;;;;;;;0.06;100.00;102510.69;5065533;28;20059;-74
2022/03/10 05:36:19;;;;;;;53.60;23.45;;;;;;;0.07;100.00;102515.91;5065572;28;20078;-73
2022/03/10 05:38:45;;;;;;;61.97;23.92;;;;;;;0.05;100.00;102514.19;5047570;28;20096;-74
2022/03/10 05:41:11;;;;;;;62.60;24.75;;;;;;;0.04;100.00;102515.97;5048089;28;20043;-74
2022/03/10 05:43:37;;;;;;;59.20;23.85;;;;;;;0.00;100.00;102506.50;5064505;28;20032;-74
2022/03/10 05:46:02;;;;;;;56.50;22.40;;;;;;;0.04;100.00;102502.00;5020821;28;20506;-74
2022/03/10 05:48:29;;;;;;;50.88;21.88;;;;;;;0.04;100.00;102502.00;5027531;28;20055;-72
2022/03/10 05:50:54;;;;;;;56.55;23.95;;;;;;;-0.04;100.00;102497.84;5027679;28;20055;-74
2022/03/10 05:53:20;;;;;;;49.57;21.87;;;;;;;0.04;100.00;102491.50;5043891;28;20478;-73
2022/03/10 05:55:45;;;;;;;57.70;22.60;;;;;;;0.03;100.00;102500.28;5026975;28;20532;-74
2022/03/10 05:58:11;;;;;;;59.50;24.47;;;;;;;0.09;100.00;102500.06;5027648;28;20032;-74
2022/03/10 06:00:37;;;;;;;57.15;23.55;;;;;;;0.10;100.00;102497.41;5033560;28;20036;-74
2022/03/10 06:03:02;;;;;;;52.05;21.83;;;;;;;0.15;100.00;102505.13;5051029;28;20121;-75
2022/03/10 06:05:27;;;;;;;52.22;23.92;;;;;;;0.15;100.00;102510.38;5051171;28;20099;-73
2022/03/10 06:07:53;;;;;;;54.72;22.02;;;;;;;0.09;100.00;102489.56;5069380;28;20075;-72
2022/03/10 06:10:18;;;;;;;52.20;23.47;;;;;;;0.14;100.00;102513.91;5067278;28;20067;-74
2022/03/10 06:12:44;;;;;;;54.85;25.20;;;;;;;0.16;100.00;102510.34;5050775;28;20115;-74
2022/03/10 06:15:10;;;;;;;59.60;22.90;;;;;;;0.10;100.00;102517.56;5050832;28;20484;-74
2022/03/10 06:17:36;;;;;;;54.28;22.98;;;;;;;0.07;100.00;102529.03;5050876;28;20033;-74
2022/03/10 06:20:02;;;;;;;;;;;;;;;0.08;100.00;102527.25;5050946;28;20469;-74
2022/03/10 06:22:29;;;;;;;49.90;22.30;;;;;;;0.11;100.00;102533.25;5050676;28;19919;-72
2022/03/10 06:24:56;;;;;;;53.75;22.55;;;;;;;0.17;100.00;102534.81;5050497;28;20485;-75
2022/03/10 06:27:24;;;;;;;;;;;;;;;0.12;100.00;102540.22;5068615;28;20036;-73
2022/03/10 06:29:51;;;;;;;56.67;22.63;;;;;;;0.15;100.00;102547.16;5050321;28;19912;-74
2022/03/10 06:32:21;;;;;;;58.72;22.58;;;;;;;0.17;100.00;102548.81;5068664;28;20031;-74
2022/03/10 06:34:48;;;;;;;56.47;24.60;;;;;;;0.19;100.00;102554.03;5050655;28;20033;-74
2022/03/10 06:37:14;;;;;;;53.20;21.70;;;;;;;0.27;100.00;102551.97;5068372;28;20032;-74
2022/03/10 06:39:40;;;;;;;;;;;;;;;0.28;100.00;102560.72;5068603;28;20063;-75
2022/03/10 06:42:05;;;;;;;52.10;23.10;;;;;;;0.32;100.00;102557.94;5066867;28;20369;-73
2022/03/10 06:44:31;;;;;;;49.05;22.10;;;;;;;0.68;100.00;102570.75;5048465;28;20033;-74
2022/03/10 06:46:57;;;;;;;57.45;21.67;;;;;;;1.04;100.00;102558.03;5046057;28;20501;-74
2022/03/10 06:49:22;;;;;;;57.80;22.50;;;;;;;1.46;100.00;102570.47;5048980;28;20071;-74
2022/03/10 06:51:48;;;;;;;52.70;22.70;;;;;;;1.43;100.00;102561.84;5032139;28;20575;-74
2022/03/10 06:54:15;;;;;;;48.85;21.95;;;;;;;1.80;100.00;102555.13;5037193;28;20055;-75
2022/03/10 06:56:40;;;;;;;46.70;20.25;;;;;;;1.57;100.00;102538.47;5069198;28;20082;-74
2022/03/10 06:59:06;;;;;;;50.40;20.17;;;;;;;1.81;100.00;102525.25;5051039;28;20089;-74
2022/03/10 07:01:31;;;;;;;48.47;19.42;;;;;;;1.96;99.74;102519.34;5069362;28;20086;-74
2022/03/10 07:03:57;;;;;;;37.83;19.10;;;;;;;2.53;98.64;102533.63;5067187;28;20039;-74
2022/03/10 07:06:23;;;;;;;41.25;17.95;;;;;;;2.53;95.97;102509.91;5067969;28;20041;-76
2022/03/10 07:08:49;;;;;;;41.45;19.42;;;;;;;2.47;94.51;102504.88;5050902;28;20485;-75
2022/03/10 07:11:15;;;;;;;49.42;21.40;;;;;;;2.58;93.41;102493.88;5050557;28;20036;-74
2022/03/10 07:13:41;;;;;;;48.03;20.55;;;;;;;2.57;92.26;102484.22;5066499;28;20131;-74
2022/03/10 07:16:06;;;;;;;43.20;21.57;;;;;;;2.61;91.27;102469.13;5068950;28;20116;-73
2022/03/10 07:18:32;;;;;;;40.13;19.10;;;;;;;2.80;90.58;102464.72;5050441;28;20040;-74
2022/03/10 07:20:58;;;;;;;45.13;19.25;;;;;;;2.43;89.74;102428.63;5068653;28;20060;-75
2022/03/10 07:23:23;;;;;;;43.70;19.45;;;;;;;2.64;89.46;102455.81;5050934;28;20032;-75
2022/03/10 07:25:49;;;;;;;42.03;19.90;;;;;;;2.49;88.90;102442.38;5050884;28;20640;-74
2022/03/10 07:28:14;;;;;;;41.33;19.80;;;;;;;2.76;88.82;102452.59;5067209;28;20097;-74
2022/03/10 07:30:39;;;;;;;40.57;17.37;;;;;;;2.78;87.98;102442.84;5051365;28;20389;-75
2022/03/10 07:33:05;;;;;;;41.17;18.47;;;;;;;2.69;87.46;102423.03;5068403;28;20111;-74
2022/03/10 07:35:30;;;;;;;42.77;17.97;;;;;;;2.85;87.57;102451.34;5066732;28;20032;-74
2022/03/10 07:37:58;;;;;;;40.80;18.93;;;;;;;3.27;86.93;102453.72;5059090;28;20088;-74
2022/03/10 07:40:23;;;;;;;44.40;20.42;;;;;;;3.11;86.02;102424.59;5066565;28;20086;-74
2022/03/10 07:42:49;;;;;;;42.38;18.40;;;;;;;3.48;85.85;102456.28;5066581;28;20036;-74
2022/03/10 07:45:14;;;;;;;40.90;18.17;;;;;;;3.35;84.52;102413.78;5066478;28;20036;-74
2022/03/10 07:47:39;;;;;;;40.43;18.57;;;;;;;3.40;84.04;102398.56;5049581;28;20278;-74
2022/03/10 07:50:06;;;;;;;39.13;19.67;;;;;;;3.43;83.72;102405.47;5049580;28;20039;-74
2022/03/10 07:52:32;;;;;;;41.88;19.48;;;;;;;3.15;83.72;102388.34;5065754;28;20283;-73
2022/03/10 07:54:57;;;;;;;42.40;20.65;;;;;;;3.77;83.20;102426.66;5049448;28;20101;-75
2022/03/10 07:57:23;;;;;;;35.57;17.27;;;;;;;4.16;82.12;102422.03;5049317;28;20051;-72
2022/03/10 07:59:48;;;;;;;42.00;19.37;;;;;;;3.57;81.45;102339.63;5049197;28;20044;-73
2022/03/10 08:02:14;;;;;;;47.33;20.40;;;;;;;3.55;81.96;102367.91;5049200;28;20457;-73
2022/03/10 08:04:39;;;;;;;41.03;18.23;;;;;;;4.04;81.52;102397.09;5049040;28;20025;-74
2022/03/10 08:07:05;;;;;;;35.90;17.15;;;;;;;3.95;80.91;102385.19;5066034;28;20488;-74
2022/03/10 08:09:30;;;;;;;37.00;18.52;;;;;;;3.37;80.91;102330.94;5048885;28;20028;-73
2022/03/10 08:11:56;;;;;;;40.43;17.83;;;;;;;3.71;81.81;102403.16;5048979;28;20032;-73
2022/03/10 08:14:21;;;;;;;45.67;21.43;;;;;;;3.81;81.19;102390.34;5065135;28;20060;-73
2022/03/10 08:16:47;;;;;;;36.93;17.17;;;;;;;3.48;81.43;102350.66;5049132;28;20151;-72
2022/03/10 08:19:12;;;;;;;43.87;19.57;;;;;;;3.35;82.18;102382.97;5065792;28;20028;-73
2022/03/10 08:21:37;;;;;;;44.00;18.70;;;;;;;3.29;82.96;102403.50;5062267;28;20045;-71
2022/03/10 08:24:04;;;;;;;44.47;19.93;;;;;;;4.00;84.48;102474.81;5064039;28;20041;-71
2022/03/10 08:26:29;;;;;;;46.50;19.38;;;;;;;4.26;83.70;102475.28;5044544;28;20104;-73
2022/03/10 08:28:54;;;;;;;41.70;18.53;;;;;;;4.93;83.01;102492.88;5060000;28;20067;-72
2022/03/10 08:31:20;;;;;;;37.20;17.63;;;;;;;5.49;80.10;102433.25;5066285;28;20062;-72
2022/03/10 08:33:46;;;;;;;51.50;19.55;;;;;;;5.59;77.65;102359.38;5066552;28;20024;-73
2022/03/10 08:36:12;;;;;;;34.45;17.15;;;;;;;4.75;76.63;102276.88;5048614;28;20077;-72
2022/03/10 08:38:38;;;;;;;39.35;19.27;;;;;;;4.34;77.06;102261.56;5048273;28;20032;-71
2022/03/10 08:41:03;;;;;;;36.50;19.20;;;;;;;5.19;76.66;102337.03;5048224;28;20262;-73
2022/03/10 08:43:30;;;;;;;37.67;17.07;;;;;;;4.80;75.96;102272.19;5066040;28;20025;-73
2022/03/10 08:45:56;;;;;;;40.08;18.92;;;;;;;5.69;75.09;102328.75;5050902;28;20036;-72
2022/03/10 08:48:22;;;;;;;33.08;17.20;;;;;;;6.07;74.21;102322.09;5048333;28;20034;-73
2022/03/10 08:50:47;;;;;;;36.30;16.67;;;;;;;6.70;71.03;102212.81;5047307;28;20759;-72
2022/03/10 08:53:12;;;;;;;38.77;18.27;;;;;;;7.23;68.75;102164.97;5031192;28;20470;-72
2022/03/10 08:55:38;;;;;;;38.97;17.63;;;;;;;7.14;67.03;102086.81;5063169;28;20032;-72
2022/03/10 08:58:03;;;;;;;34.87;15.90;;;;;;;7.27;66.44;102096.56;5047065;28;20607;-72
2022/03/10 09:00:29;;;;;;;36.00;18.53;;;;;;;6.95;67.19;102118.22;5065493;28;20031;-72
2022/03/10 09:02:55;;;;;;;35.77;18.10;;;;;;;7.18;66.51;102100.72;5065182;28;20389;-72
2022/03/10 09:05:20;;;;;;;37.28;19.90;;;;;;;6.53;65.62;101975.13;5065331;28;20020;-73
2022/03/10 09:07:45;;;;;;;38.37;17.73;;;;;;;7.01;66.07;102099.22;5047418;28;20105;-72
2022/03/10 09:10:11;;;;;;;32.97;16.83;;;;;;;6.73;65.45;102020.66;5047229;28;20520;-72
2022/03/10 09:12:37;;;;;;;41.03;17.92;;;;;;;6.24;66.42;102048.72;5063413;28;20421;-72
2022/03/10 09:15:04;;;;;;;33.35;16.55;;;;;;;7.94;65.91;102198.09;5065726;28;20143;-72
2022/03/10 09:17:29;;;;;;;35.55;18.23;;;;;;;8.12;63.15;102043.44;5065325;28;20036;-72
2022/03/10 09:19:55;;;;;;;35.13;16.83;;;;;;;8.63;61.99;102067.94;5065210;28;20020;-72
2022/03/10 09:22:20;;;;;;;36.03;18.10;;;;;;;7.72;61.71;101945.38;5047087;28;20032;-72
2022/03/10 09:24:46;;;;;;;32.50;16.87;;;;;;;7.10;62.87;101968.47;5064870;28;20029;-72
2022/03/10 09:27:11;;;;;;;40.80;19.20;;;;;;;6.87;64.11;101993.16;5065423;28;20020;-72
2022/03/10 09:29:37;;;;;;;36.83;17.08;;;;;;;7.21;64.80;102092.53;5047136;28;20458;-72
2022/03/10 09:32:03;;;;;;;31.83;17.02;;;;;;;8.79;62.67;102152.00;5064061;28;20512;-72
2022/03/10 09:34:28;;;;;;;34.42;17.10;;;;;;;7.83;61.26;101903.72;5046781;28;20078;-73
2022/03/10 09:36:54;;;;;;;33.83;17.57;;;;;;;7.75;61.29;101919.41;5033263;28;20036;-72
2022/03/10 09:39:19;;;;;;;32.57;16.43;;;;;;;8.47;61.87;102078.06;5063380;28;20025;-72
2022/03/10 09:41:45;;;;;;;36.97;17.02;;;;;;;7.64;60.60;101876.00;5047495;28;20482;-72
2022/03/10 09:44:19;;;;;;;27.53;15.27;;;;;;;8.95;59.97;102019.34;5065015;28;20068;-72
2022/03/10 09:46:50;;;;;;;33.80;16.55;;;;;;;7.55;59.95;101814.59;5064102;28;20144;-73
2022/03/10 09:49:20;;;;;;;31.98;16.80;;;;;;;8.10;60.66;101989.50;5065045;28;20029;-73
2022/03/10 09:51:48;;;;;;;36.30;17.95;;;;;;;7.55;61.33;101944.81;5047181;28;20036;-73
2022/03/10 09:54:14;;;;;;;32.58;16.58;;;;;;;8.40;61.32;102072.34;5064951;28;20020;-73
2022/03/10 09:56:42;;;;;;;30.30;15.48;;;;;;;8.55;60.83;102066.84;5065109;28;20366;-73
2022/03/10 09:59:08;;;;;;;33.35;16.85;;;;;;;8.29;60.74;102016.41;5046848;28;20064;-73
2022/03/10 10:01:34;;;;;;;33.80;18.08;;;;;;;7.99;60.48;101945.94;5064733;28;20032;-73
2022/03/10 10:03:59;;;;;;;32.23;16.47;;;;;;;8.36;60.76;102008.81;5063386;28;20547;-73
2022/03/10 10:06:24;;;;;;;31.33;15.63;;;;;;;8.78;60.08;102044.63;5030440;28;20079;-73
2022/03/10 10:08:55;;;;;;;32.73;16.87;;;;;;;9.80;58.09;102021.38;5047247;28;20393;-73
2022/03/10 10:11:29;;;;;;;27.50;16.42;;;;;;;9.30;57.44;101907.25;5046772;28;20028;-73
2022/03/10 10:13:55;;;;;;;32.65;17.20;;;;;;;7.90;57.63;101704.69;5064934;28;20047;-73
2022/03/10 10:16:21;;;;;;;32.50;17.57;;;;;;;8.55;59.26;101973.69;5046796;28;20024;-73
2022/03/10 10:18:46;;;;;;;;;;;;;;;8.79;58.12;101891.03;5064874;28;20044;-73
2022/03/10 10:21:14;;;;;;;;;;;;;;;9.26;57.92;101953.78;5063767;28;20010;-72
2022/03/10 10:23:40;;;;;;;34.08;17.77;;;;;;;9.05;57.72;101887.09;5030015;28;19912;-73
2022/03/10 10:26:11;;;;;;;32.08;16.75;;;;;;;9.30;57.55;101928.56;5047003;28;20033;-72
2022/03/10 10:28:39;;;;;;;31.00;16.90;;;;;;;10.17;56.63;101986.28;5046704;28;20473;-73
2022/03/10 10:31:07;;;;;;;32.03;17.02;;;;;;;10.07;56.15;101934.69;5047000;28;20035;-73
2022/03/10 10:33:34;;;;;;;31.45;17.15;;;;;;;10.72;55.04;101940.69;5065056;28;20040;-73
2022/03/10 10:36:26;;;;;;;27.13;15.90;;;;;;;11.41;53.26;101892.59;5064772;28;20112;-73
2022/03/10 10:38:54;;;;;;;37.05;19.15;;;;;;;10.20;53.66;101739.66;5064749;28;20068;-73
2022/03/10 10:41:24;;;;;;;27.58;15.00;;;;;;;9.95;54.59;101795.19;5064735;28;20036;-72
2022/03/10 10:44:00;;;;;;;29.35;16.35;;;;;;;10.21;54.01;101776.91;5046412;28;20105;-72
2022/03/10 10:46:31;;;;;;;31.65;16.85;;;;;;;10.03;54.28;101786.50;5047127;28;20115;-72
2022/03/10 10:48:59;;;;;;;29.98;16.52;;;;;;;10.20;54.84;101857.94;5066202;28;20094;-72
2022/03/10 10:51:42;;;;;;;31.42;16.23;;;;;;;9.74;53.96;101701.88;5033632;28;20020;-73
2022/03/10 10:56:47;;;;;;;29.08;15.48;;;;;;;10.17;55.04;101852.88;5063707;28;20036;-73
2022/03/10 10:59:36;;;;;;;29.38;15.32;;;;;;;10.11;54.68;101822.22;5050046;28;20504;-72
2022/03/10 11:02:09;;;;;;;27.70;16.23;;;;;;;10.35;54.04;101813.09;5066572;28;20059;-73
2022/03/10 11:04:39;;;;;;;28.95;15.98;;;;;;;11.32;53.33;101892.59;5068340;28;20093;-72
2022/03/10 11:07:05;;;;;;;30.52;16.25;;;;;;;11.80;50.95;101721.38;5068067;28;20055;-72
2022/03/10 11:09:32;;;;;;;;;;;;;;;11.84;51.12;101754.00;5063351;28;20033;-72
2022/03/10 11:11:57;;;;;;;27.70;15.07;;;;;;;12.18;49.41;101641.88;5066497;28;19912;-72
2022/03/10 11:14:23;;;;;;;28.15;16.02;;;;;;;10.54;51.90;101652.94;5067548;28;20032;-72
2022/03/10 11:16:49;;;;;;;31.05;18.70;;;;;;;10.66;52.46;101698.19;5067986;28;20036;-72
2022/03/10 11:19:17;;;;;;;28.48;15.65;;;;;;;10.42;52.52;101666.53;5067681;28;20478;-72